KHHRKSQL

Guest
Details From KHHR - Jack Northrop Fld Hawthorne Muni
To KSQL - San Carlos
Flight Number -
Tags decoded
Created
Modified
Stats Distance 294 nm / 545 km
Max Altitude 0 ft / 0 m
Waypoints 4
Social Downloads 1
Likes 0
Share VATSIM

Download

Looking for another format? Having issues loading an existing format? Contact us
Advertisement - Login to hide

Notes

Requested: KHHR VTU AMEBY KSQL

Route

KHHR VTU AMEBY KSQL

ID Type Via Altitude Latitude Longitude Leg Dist Tot Dist Heading (true) Name
O KHHR APT - 0 ft / 0 m 33.92286˚ -118.33516˚ - 0 nm - Jack Northrop Fld Hawthorne Muni
VTU VOR - 0 ft / 0 m 34.11506˚ -119.04950˚ 37 nm 37 nm 288° / 288° VENTURA VOR-DME
AMEBY FIX - 0 ft / 0 m 37.37183˚ -122.05810˚ 244 nm 281 nm 324° / 322° -
O KSQL APT - 0 ft / 0 m 37.51173˚ -122.24939˚ 12 nm 294 nm 313° / 313° San Carlos

Altitude Profile

Advertisement - Login to hide

Weather


0- 5 10 15 20 25 30 35+ Temperature / ° C

Clouds and Precipitation
Forecast for 2017-12-18 18:00 UTC. Updated 2 hours ago

Ground ~20,000 ft ~40,000 ft Winds

KHHR

Details ICAO KHHR (HHR)
Name Jack Northrop Fld Hawthorne Muni
Region United States
Timezone America/Los_Angeles (UTC-8.0)
Stats Elevation 66 ft / 20 m (AMSL)
Location 33.922857° -118.335162°
Runways 1
Magnetic Variation 11.987° E

METAR

KHHR 181453Z 00000KT 10SM CLR 10/M04 A3014 RMK AO2 SLP205 T01001039 53015

Decode

TAF

Not found

Departure Runways

ID Width Length Bearing (true) Bearing (mag) Surface Threshold Offset Overrun Length
07 98 ft / 30 m 4,961 ft / 1,512 m 86.70° 74.71° Concrete 971 ft / 296 m 0 ft / 0 m
25 98 ft / 30 m 4,961 ft / 1,512 m 266.70° 254.71° Concrete 463 ft / 141 m 0 ft / 0 m

KSQL

Details ICAO KSQL (SQL)
Name San Carlos
Region United States
Timezone America/Los_Angeles (UTC-8.0)
Stats Elevation 5 ft / 2 m (AMSL)
Location 37.511735° -122.249386°
Runways 1
Magnetic Variation 13.420° E

METAR

KSQL 181455Z AUTO 00000KT 10SM CLR 06/02 A3020 RMK AO2

Decode

TAF

Not found

Destination Runways

ID Width Length Bearing (true) Bearing (mag) Surface Threshold Offset Overrun Length
12 75 ft / 23 m 2,619 ft / 798 m 138.39° 124.97° Asphalt 0 ft / 0 m 299 ft / 91 m
30 75 ft / 23 m 2,619 ft / 798 m 318.40° 304.98° Asphalt 0 ft / 0 m 135 ft / 41 m

Popular Alternatives